createdAt,value
2023-02-14T00:00:53.941Z,-1.40
2023-02-14T00:02:57.089Z,-1.50
2023-02-14T00:04:58.861Z,-1.50
2023-02-14T00:07:01.275Z,-1.50
2023-02-14T00:09:03.023Z,-1.50
2023-02-14T00:11:05.473Z,-1.50
2023-02-14T00:13:07.163Z,-1.40
2023-02-14T00:15:22.353Z,-1.40
2023-02-14T00:17:24.038Z,-1.40
2023-02-14T00:19:26.163Z,-1.40
2023-02-14T00:21:27.832Z,-1.50
2023-02-14T00:23:29.449Z,-1.50
2023-02-14T00:25:33.119Z,-1.50
2023-02-14T00:27:34.843Z,-1.50
2023-02-14T00:29:36.535Z,-1.40
2023-02-14T00:31:39.455Z,-1.30
2023-02-14T00:33:41.260Z,-1.30
2023-02-14T00:35:42.915Z,-1.30
2023-02-14T00:38:03.013Z,-1.40
2023-02-14T00:40:06.372Z,-1.40
2023-02-14T00:42:08.108Z,-1.40
2023-02-14T00:44:11.746Z,-1.40
2023-02-14T00:46:14.572Z,-1.30
2023-02-14T00:48:16.411Z,-1.20
2023-02-14T00:50:18.165Z,-1.20
2023-02-14T00:52:19.865Z,-1.20
2023-02-14T00:54:21.705Z,-1.30
2023-02-14T00:56:23.479Z,-1.20
2023-02-14T00:58:25.358Z,-1.20
2023-02-14T01:00:27.047Z,-1.20
2023-02-14T01:02:28.827Z,-1.30
2023-02-14T01:04:30.446Z,-1.30
2023-02-14T01:06:32.144Z,-1.30
2023-02-14T01:08:33.963Z,-1.30
2023-02-14T01:10:37.199Z,-1.40
2023-02-14T01:12:39.012Z,-1.40
2023-02-14T01:14:40.815Z,-1.30
2023-02-14T01:16:42.616Z,-1.30
2023-02-14T01:18:45.289Z,-1.40
2023-02-14T01:20:47.118Z,-1.40
2023-02-14T01:27:27.208Z,-1.40
2023-02-14T01:29:29.472Z,-1.40
2023-02-14T01:31:33.597Z,-1.40
2023-02-14T01:33:35.612Z,-1.40
2023-02-14T01:35:38.756Z,-1.40
2023-02-14T01:37:40.641Z,-1.40
2023-02-14T01:39:42.456Z,-1.50
2023-02-14T01:41:48.461Z,-1.40
2023-02-14T01:43:51.195Z,-1.40
2023-02-14T01:45:52.949Z,-1.40
2023-02-14T01:47:56.793Z,-1.30
2023-02-14T01:50:04.521Z,-1.30
2023-02-14T01:52:12.254Z,-1.30
2023-02-14T01:54:14.428Z,-1.30
2023-02-14T01:56:24.436Z,-1.30
2023-02-14T01:58:29.712Z,-1.30
2023-02-14T02:00:49.864Z,-1.30
2023-02-14T02:02:52.077Z,-1.30
2023-02-14T02:04:56.402Z,-1.30
2023-02-14T02:07:01.654Z,-1.30
2023-02-14T02:09:25.599Z,-1.30
2023-02-14T02:11:27.478Z,-1.30
2023-02-14T02:13:30.074Z,-1.40
2023-02-14T02:15:42.336Z,-1.40
2023-02-14T02:18:10.958Z,-1.40
2023-02-14T02:20:31.536Z,-1.40
2023-02-14T02:23:00.580Z,-1.40
2023-02-14T02:25:20.224Z,-1.30
2023-02-14T02:27:31.488Z,-1.40
2023-02-14T02:29:50.908Z,-1.30
2023-02-14T02:32:11.143Z,-1.30
2023-02-14T02:34:24.513Z,-1.20
2023-02-14T02:37:02.547Z,-1.30
2023-02-14T02:39:20.614Z,-1.20
2023-02-14T02:41:40.878Z,-1.20
2023-02-14T02:44:12.948Z,-1.20
2023-02-14T02:46:48.889Z,-1.10
2023-02-14T02:50:06.418Z,-1.20
2023-02-14T02:52:46.444Z,-1.10
2023-02-14T02:54:58.805Z,-1.20
2023-02-14T02:57:03.592Z,-1.10
2023-02-14T02:59:22.999Z,-1.20
2023-02-14T03:01:32.214Z,-1.20
2023-02-14T03:03:54.202Z,-1.20
2023-02-14T03:05:56.572Z,-1.20
2023-02-14T03:07:58.261Z,-1.20
2023-02-14T03:10:02.106Z,-1.20
2023-02-14T03:12:31.662Z,-1.20
2023-02-14T03:14:55.163Z,-1.20
2023-02-14T03:17:13.067Z,-1.10
2023-02-14T03:19:55.476Z,-1.10
2023-02-14T03:22:19.732Z,-1.10
2023-02-14T03:25:00.932Z,-1.10
2023-02-14T03:27:21.141Z,-1.10
2023-02-14T03:29:38.837Z,-1.10
2023-02-14T03:31:59.700Z,-1.10
2023-02-14T03:34:11.153Z,-1.10
2023-02-14T03:36:21.410Z,-1.10
2023-02-14T03:38:47.279Z,-1.10
2023-02-14T03:40:54.840Z,-1.10
2023-02-14T03:43:01.898Z,-1.10
2023-02-14T03:45:07.967Z,-1.10
2023-02-14T03:47:16.734Z,-1.10
2023-02-14T03:49:23.725Z,-1.10
2023-02-14T03:51:27.308Z,-1.10
2023-02-14T03:53:34.907Z,-1.00
2023-02-14T03:55:43.876Z,-1.00
2023-02-14T03:58:08.819Z,-1.00
2023-02-14T04:00:11.490Z,-1.00
2023-02-14T04:02:16.924Z,-1.00
2023-02-14T04:04:22.189Z,-1.00
2023-02-14T04:06:24.070Z,-1.00
2023-02-14T04:08:28.710Z,-0.90
2023-02-14T04:10:30.379Z,-1.00
2023-02-14T04:12:37.731Z,-1.00
2023-02-14T04:14:40.126Z,-1.00
2023-02-14T04:17:01.038Z,-1.00
2023-02-14T04:19:21.555Z,-1.00
2023-02-14T04:21:23.206Z,-1.00
2023-02-14T04:23:24.842Z,-1.00
2023-02-14T04:25:26.817Z,-1.00
2023-02-14T04:27:28.435Z,-1.10
2023-02-14T04:29:30.078Z,-1.10
2023-02-14T04:31:31.811Z,-1.10
2023-02-14T04:33:34.037Z,-1.10
2023-02-14T04:35:35.722Z,-1.20
2023-02-14T04:37:37.378Z,-1.20
2023-02-14T04:39:39.204Z,-1.20
2023-02-14T04:41:40.860Z,-1.30
2023-02-14T04:43:42.576Z,-1.30
2023-02-14T04:45:44.267Z,-1.40
2023-02-14T04:47:45.950Z,-1.40
2023-02-14T04:49:47.665Z,-1.40
2023-02-14T04:51:49.340Z,-1.40
2023-02-14T04:53:50.998Z,-1.40
2023-02-14T04:55:52.620Z,-1.40
2023-02-14T04:57:54.319Z,-1.30
2023-02-14T04:59:56.084Z,-1.40
2023-02-14T05:01:57.837Z,-1.40
2023-02-14T05:03:59.555Z,-1.40
2023-02-14T05:06:01.259Z,-1.30
2023-02-14T05:08:02.905Z,-1.30
2023-02-14T05:10:06.105Z,-1.30
2023-02-14T05:12:07.843Z,-1.30
2023-02-14T05:14:09.779Z,-1.30
2023-02-14T05:16:11.482Z,-1.30
2023-02-14T05:18:13.244Z,-1.40
2023-02-14T05:20:14.958Z,-1.50
2023-02-14T05:22:18.482Z,-1.50
2023-02-14T05:24:20.261Z,-1.60
2023-02-14T05:26:22.100Z,-1.50
2023-02-14T05:28:23.760Z,-1.50
2023-02-14T05:30:27.957Z,-1.50
2023-02-14T05:32:29.738Z,-1.50
2023-02-14T05:34:31.340Z,-1.60
2023-02-14T05:36:33.059Z,-1.60
2023-02-14T05:38:34.960Z,-1.60
2023-02-14T05:40:36.609Z,-1.60
2023-02-14T05:42:38.241Z,-1.60
2023-02-14T05:44:39.879Z,-1.60
2023-02-14T05:46:41.538Z,-1.60
2023-02-14T05:48:43.164Z,-1.60
2023-02-14T05:50:45.495Z,-1.60
2023-02-14T05:52:47.292Z,-1.70
2023-02-14T05:54:48.965Z,-1.70
2023-02-14T05:56:50.613Z,-1.70
2023-02-14T05:58:52.279Z,-1.70
2023-02-14T06:00:54.040Z,-1.80
2023-02-14T06:02:55.744Z,-1.80
2023-02-14T06:04:57.383Z,-1.80
2023-02-14T06:06:59.121Z,-1.80
2023-02-14T06:09:03.933Z,-1.80
2023-02-14T06:11:05.642Z,-1.90
2023-02-14T06:13:10.674Z,-1.90
2023-02-14T06:15:12.480Z,-1.90
2023-02-14T06:17:14.160Z,-1.90
2023-02-14T06:19:15.845Z,-1.90
2023-02-14T06:21:17.573Z,-1.90
2023-02-14T06:23:19.208Z,-1.90
2023-02-14T06:25:21.865Z,-1.90
2023-02-14T06:27:23.531Z,-1.90
2023-02-14T06:29:25.271Z,-1.90
2023-02-14T06:31:27.031Z,-1.90
2023-02-14T06:33:28.740Z,-1.90
2023-02-14T06:35:30.587Z,-1.90
2023-02-14T06:37:32.925Z,-1.90
2023-02-14T06:39:34.555Z,-1.90
2023-02-14T06:41:36.199Z,-1.80
2023-02-14T06:43:38.715Z,-1.80
2023-02-14T06:45:43.585Z,-1.80
2023-02-14T06:47:45.538Z,-1.70
2023-02-14T06:49:47.262Z,-1.50
2023-02-14T06:51:48.898Z,-1.30
2023-02-14T06:53:50.622Z,-1.20
2023-02-14T06:55:52.297Z,-1.10
2023-02-14T06:57:53.986Z,-1.10
2023-02-14T06:59:55.756Z,-1.00
2023-02-14T07:01:57.437Z,-1.00
2023-02-14T07:03:59.148Z,-1.00
2023-02-14T07:06:00.879Z,-1.00
2023-02-14T07:08:02.867Z,-1.10
2023-02-14T07:10:05.042Z,-1.10
2023-02-14T07:12:07.058Z,-1.10
2023-02-14T07:14:08.778Z,-1.10
2023-02-14T07:16:11.134Z,-1.00
2023-02-14T07:18:12.890Z,-1.00
2023-02-14T07:20:14.616Z,-0.80
2023-02-14T07:22:16.332Z,-0.70
2023-02-14T07:24:18.027Z,-0.50
2023-02-14T07:26:19.785Z,-0.30
2023-02-14T07:28:21.732Z,-0.10
2023-02-14T07:30:23.549Z,0.00
2023-02-14T07:32:25.387Z,0.30
2023-02-14T07:34:27.352Z,0.50
2023-02-14T07:36:29.048Z,0.60
2023-02-14T07:38:30.724Z,0.90
2023-02-14T07:40:32.426Z,1.20
2023-02-14T07:42:34.084Z,1.50
2023-02-14T07:44:35.857Z,2.10
2023-02-14T07:46:37.621Z,2.70
2023-02-14T07:48:39.631Z,3.40
2023-02-14T07:50:41.381Z,4.00
2023-02-14T07:52:43.856Z,4.20
2023-02-14T07:54:45.512Z,4.60
2023-02-14T07:56:47.154Z,4.90
2023-02-14T07:58:49.841Z,5.10
2023-02-14T08:00:52.695Z,5.30
2023-02-14T08:02:56.046Z,5.50
2023-02-14T08:04:57.780Z,5.70
2023-02-14T08:06:59.504Z,6.10
2023-02-14T08:09:01.440Z,6.10
2023-02-14T08:11:03.632Z,6.50
2023-02-14T08:13:05.269Z,6.70
2023-02-14T08:15:25.459Z,7.00
2023-02-14T08:17:27.102Z,7.00
2023-02-14T08:19:29.355Z,6.90
2023-02-14T08:21:31.313Z,6.80
2023-02-14T08:23:33.085Z,7.10
2023-02-14T08:25:34.784Z,7.60
2023-02-14T08:27:36.879Z,8.00
2023-02-14T08:29:38.524Z,8.40
2023-02-14T08:31:40.230Z,8.90
2023-02-14T08:33:44.172Z,9.10
2023-02-14T08:35:45.835Z,9.30
2023-02-14T08:37:47.489Z,9.30
2023-02-14T08:39:49.126Z,9.20
2023-02-14T08:41:50.750Z,9.30
2023-02-14T08:43:52.495Z,9.60
2023-02-14T08:45:54.228Z,9.60
2023-02-14T08:48:01.989Z,9.60
2023-02-14T08:50:05.833Z,9.80
2023-02-14T08:52:07.507Z,10.10
2023-02-14T08:54:09.154Z,10.10
2023-02-14T08:56:13.557Z,9.40
2023-02-14T08:58:15.316Z,9.90
2023-02-14T09:00:17.531Z,10.20
2023-02-14T09:02:19.187Z,9.70
2023-02-14T09:04:20.910Z,10.60
2023-02-14T09:06:22.596Z,10.80
2023-02-14T09:08:24.300Z,11.30
2023-02-14T09:10:26.095Z,11.70
2023-02-14T09:12:27.832Z,11.70
2023-02-14T09:14:31.867Z,11.50
2023-02-14T09:16:33.864Z,10.30
2023-02-14T09:18:35.942Z,10.40
2023-02-14T09:20:37.696Z,10.90
2023-02-14T09:22:39.440Z,11.70
2023-02-14T09:24:41.489Z,12.00
2023-02-14T09:26:43.226Z,12.10
2023-02-14T09:28:45.477Z,10.90
2023-02-14T09:30:47.148Z,11.80
2023-02-14T09:32:50.829Z,11.80
2023-02-14T09:34:52.527Z,12.40
2023-02-14T09:37:12.928Z,12.70
2023-02-14T09:39:14.615Z,13.20
2023-02-14T09:41:25.414Z,13.30
2023-02-14T09:43:45.692Z,13.40
2023-02-14T09:45:52.958Z,13.30
2023-02-14T09:48:07.592Z,13.00
2023-02-14T09:50:30.704Z,13.50
2023-02-14T09:52:32.851Z,13.30
2023-02-14T09:54:35.881Z,13.90
2023-02-14T09:56:53.888Z,13.10
2023-02-14T09:59:29.273Z,13.90
2023-02-14T10:01:59.938Z,14.30
2023-02-14T10:04:42.397Z,15.00
2023-02-14T10:06:59.045Z,15.20
2023-02-14T10:09:00.667Z,16.00
2023-02-14T10:11:17.065Z,16.10
2023-02-14T10:13:36.896Z,16.70
2023-02-14T10:15:46.427Z,16.30
2023-02-14T10:17:58.460Z,16.70
2023-02-14T10:20:23.154Z,16.90
2023-02-14T10:22:41.928Z,16.90
2023-02-14T10:24:52.490Z,16.50
2023-02-14T10:27:02.093Z,15.80
2023-02-14T10:29:07.491Z,15.50
2023-02-14T10:31:38.090Z,15.10
2023-02-14T10:33:42.817Z,15.00
2023-02-14T10:35:49.053Z,14.70
2023-02-14T10:38:29.247Z,14.80
2023-02-14T10:40:43.762Z,14.70
2023-02-14T10:43:22.987Z,15.10
2023-02-14T10:45:44.591Z,14.80
2023-02-14T10:47:51.723Z,14.60
2023-02-14T10:50:08.599Z,14.70
2023-02-14T10:52:27.184Z,14.50
2023-02-14T10:54:35.660Z,14.50
2023-02-14T10:56:43.336Z,15.00
2023-02-14T10:58:47.576Z,14.70
2023-02-14T11:01:01.492Z,15.20
2023-02-14T11:03:07.883Z,15.50
2023-02-14T11:05:26.152Z,15.20
2023-02-14T11:07:27.899Z,15.30
2023-02-14T11:09:29.560Z,14.90
2023-02-14T11:11:41.190Z,14.90
2023-02-14T11:13:43.165Z,15.20
2023-02-14T11:15:50.738Z,15.10
2023-02-14T11:18:10.177Z,15.10
2023-02-14T11:20:30.454Z,14.50
2023-02-14T11:22:35.033Z,14.10
2023-02-14T11:24:42.166Z,14.70
2023-02-14T11:26:52.965Z,14.60
2023-02-14T11:29:09.999Z,14.60
2023-02-14T11:31:11.785Z,14.60
2023-02-14T11:33:38.492Z,14.70
2023-02-14T11:35:40.261Z,14.50
2023-02-14T11:37:51.531Z,14.20
2023-02-14T11:39:55.318Z,14.10
2023-02-14T11:42:00.544Z,13.60
2023-02-14T11:44:24.670Z,13.90
2023-02-14T11:46:28.019Z,13.80
2023-02-14T11:48:38.365Z,13.50
2023-02-14T11:50:42.074Z,13.40
2023-02-14T11:52:52.249Z,13.40
2023-02-14T11:54:55.208Z,13.10
2023-02-14T11:57:03.731Z,12.50
2023-02-14T11:59:05.606Z,12.40
2023-02-14T12:01:20.910Z,12.70
2023-02-14T12:03:23.606Z,12.80
2023-02-14T12:05:36.725Z,12.80
2023-02-14T12:07:39.374Z,12.30
2023-02-14T12:09:43.113Z,12.60
2023-02-14T12:11:56.583Z,12.80
2023-02-14T12:13:58.977Z,12.70
2023-02-14T12:16:00.961Z,12.70
2023-02-14T12:18:37.292Z,12.60
2023-02-14T12:20:49.421Z,12.90
2023-02-14T12:23:26.665Z,13.40
2023-02-14T12:25:40.022Z,13.20
2023-02-14T12:28:01.396Z,13.80
2023-02-14T12:30:15.364Z,14.20
2023-02-14T12:32:21.332Z,14.50
2023-02-14T12:34:22.959Z,14.60
2023-02-14T12:36:35.748Z,14.70
2023-02-14T12:38:46.115Z,14.40
2023-02-14T12:41:16.258Z,14.30
2023-02-14T12:43:50.678Z,14.30
2023-02-14T12:45:55.385Z,14.80
2023-02-14T12:48:03.085Z,14.70
2023-02-14T12:50:25.924Z,14.50
2023-02-14T12:52:46.057Z,15.10
2023-02-14T12:54:50.533Z,15.60
2023-02-14T12:57:15.421Z,15.10
2023-02-14T12:59:51.276Z,14.50
2023-02-14T13:02:11.555Z,14.70
2023-02-14T13:04:51.618Z,15.30
2023-02-14T13:07:16.284Z,15.30
2023-02-14T13:09:40.565Z,15.40
2023-02-14T13:12:01.526Z,15.10
2023-02-14T13:14:14.747Z,14.90
2023-02-14T13:16:25.990Z,14.80
2023-02-14T13:18:36.544Z,15.40
2023-02-14T13:20:51.045Z,15.70
2023-02-14T13:22:55.725Z,15.70
2023-02-14T13:25:07.185Z,16.00
2023-02-14T13:27:16.238Z,15.80
2023-02-14T13:29:21.196Z,16.70
2023-02-14T13:31:23.383Z,16.80
2023-02-14T13:33:28.302Z,16.10
2023-02-14T13:35:31.389Z,15.70
2023-02-14T13:37:33.746Z,15.60
2023-02-14T13:39:40.899Z,15.70
2023-02-14T13:41:43.411Z,16.00
2023-02-14T13:43:49.381Z,16.40
2023-02-14T13:45:55.047Z,17.00
2023-02-14T13:48:11.192Z,17.30
2023-02-14T13:50:21.368Z,16.50
2023-02-14T13:52:46.529Z,16.20
2023-02-14T13:54:48.985Z,16.10
2023-02-14T13:56:50.723Z,16.50
2023-02-14T13:59:00.096Z,16.80
2023-02-14T14:01:42.204Z,16.90
2023-02-14T14:03:45.596Z,16.30
2023-02-14T14:05:56.934Z,16.50
2023-02-14T14:08:17.844Z,17.40
2023-02-14T14:10:59.606Z,17.60
2023-02-14T14:13:01.296Z,17.30
2023-02-14T14:15:05.891Z,17.30
2023-02-14T14:17:20.876Z,17.00
2023-02-14T14:19:25.236Z,16.70
2023-02-14T14:21:29.803Z,16.70
2023-02-14T14:23:39.663Z,16.80
2023-02-14T14:25:43.072Z,16.80
2023-02-14T14:27:46.498Z,16.90
2023-02-14T14:29:59.579Z,16.80
2023-02-14T14:32:24.831Z,16.60
2023-02-14T14:34:28.449Z,16.40
2023-02-14T14:36:30.144Z,16.30
2023-02-14T14:38:33.200Z,16.30
2023-02-14T14:40:38.092Z,16.40
2023-02-14T14:42:40.749Z,16.80
2023-02-14T14:45:03.429Z,16.60
2023-02-14T14:47:05.354Z,16.30
2023-02-14T14:49:11.903Z,16.30
2023-02-14T14:51:33.631Z,16.50
2023-02-14T14:53:44.509Z,16.70
2023-02-14T14:55:51.942Z,16.60
2023-02-14T14:57:56.826Z,16.30
2023-02-14T15:00:18.595Z,16.10
2023-02-14T15:02:23.301Z,15.40
2023-02-14T15:04:27.158Z,15.00
2023-02-14T15:06:29.085Z,14.40
2023-02-14T15:08:31.811Z,13.80
2023-02-14T15:10:33.494Z,13.30
2023-02-14T15:12:53.837Z,12.10
2023-02-14T15:14:56.623Z,11.30
2023-02-14T15:17:02.095Z,11.00
2023-02-14T15:19:18.111Z,10.90
2023-02-14T15:21:20.017Z,10.80
2023-02-14T15:23:24.396Z,10.70
2023-02-14T15:25:31.451Z,10.50
2023-02-14T15:27:34.821Z,10.40
2023-02-14T15:29:36.464Z,10.30
2023-02-14T15:31:40.906Z,10.10
2023-02-14T15:33:42.874Z,10.10
2023-02-14T15:35:44.709Z,10.10
2023-02-14T15:37:47.203Z,10.00
2023-02-14T15:39:52.910Z,9.90
2023-02-14T15:41:55.568Z,9.80
2023-02-14T15:43:58.039Z,9.70
2023-02-14T15:46:16.079Z,9.70
2023-02-14T15:48:26.084Z,9.40
2023-02-14T15:50:52.616Z,9.30
2023-02-14T15:52:59.512Z,9.10
2023-02-14T15:55:01.177Z,8.90
2023-02-14T15:57:04.231Z,8.80
2023-02-14T15:59:19.785Z,8.60
2023-02-14T16:01:21.812Z,8.50
2023-02-14T16:03:26.922Z,8.40
2023-02-14T16:05:29.083Z,8.20
2023-02-14T16:07:30.933Z,8.10
2023-02-14T16:09:36.454Z,7.90
2023-02-14T16:11:38.516Z,7.70
2023-02-14T16:13:47.098Z,7.50
2023-02-14T16:16:02.473Z,7.30
2023-02-14T16:18:16.331Z,7.20
2023-02-14T16:20:29.777Z,7.00
2023-02-14T16:22:32.090Z,6.80
2023-02-14T16:24:34.470Z,6.70
2023-02-14T16:26:38.198Z,6.50
2023-02-14T16:28:42.405Z,6.40
2023-02-14T16:30:47.349Z,6.20
2023-02-14T16:32:50.607Z,6.10
2023-02-14T16:34:52.484Z,6.00
2023-02-14T16:36:54.303Z,5.80
2023-02-14T16:38:56.644Z,5.70
2023-02-14T16:40:58.615Z,5.70
2023-02-14T16:43:00.753Z,5.60
2023-02-14T16:45:02.406Z,5.50
2023-02-14T16:47:10.946Z,5.40
2023-02-14T16:49:13.834Z,5.30
2023-02-14T16:51:16.102Z,5.20
2023-02-14T16:53:25.702Z,5.20
2023-02-14T16:55:29.956Z,5.10
2023-02-14T16:57:42.143Z,5.00
2023-02-14T16:59:44.002Z,4.90
2023-02-14T17:01:45.882Z,4.80
2023-02-14T17:03:47.813Z,4.70
2023-02-14T17:05:49.592Z,4.70
2023-02-14T17:07:51.443Z,4.60
2023-02-14T17:09:58.340Z,4.60
2023-02-14T17:12:06.179Z,4.60
2023-02-14T17:14:08.605Z,4.50
2023-02-14T17:16:12.918Z,4.50
2023-02-14T17:18:17.014Z,4.50
2023-02-14T17:20:21.935Z,4.40
2023-02-14T17:22:24.521Z,4.30
2023-02-14T17:24:26.431Z,4.30
2023-02-14T17:26:28.069Z,4.30
2023-02-14T17:28:29.971Z,4.20
2023-02-14T17:30:31.812Z,4.10
2023-02-14T17:32:35.308Z,4.10
2023-02-14T17:34:36.989Z,4.00
2023-02-14T17:36:38.762Z,4.00
2023-02-14T17:38:43.298Z,3.90
2023-02-14T17:40:44.952Z,3.90
2023-02-14T17:42:46.576Z,3.80
2023-02-14T17:44:48.245Z,3.70
2023-02-14T17:46:50.237Z,3.70
2023-02-14T17:48:52.016Z,3.70
2023-02-14T17:50:53.657Z,3.70
2023-02-14T17:52:56.547Z,3.70
2023-02-14T17:54:58.407Z,3.80
2023-02-14T17:57:00.086Z,3.80
2023-02-14T17:59:01.812Z,3.90
2023-02-14T18:01:09.248Z,3.90
2023-02-14T18:03:10.982Z,3.90
2023-02-14T18:05:12.815Z,3.90
2023-02-14T18:07:14.655Z,3.90
2023-02-14T18:09:16.616Z,3.80
2023-02-14T18:11:19.956Z,3.60
2023-02-14T18:13:25.732Z,3.60
2023-02-14T18:15:28.247Z,3.50
2023-02-14T18:17:30.049Z,3.50
2023-02-14T18:19:31.968Z,3.50
2023-02-14T18:21:36.026Z,3.40
2023-02-14T18:23:37.771Z,3.40
2023-02-14T18:25:39.389Z,3.40
2023-02-14T18:27:40.979Z,3.40
2023-02-14T18:29:42.617Z,3.40
2023-02-14T18:31:44.995Z,3.40
2023-02-14T18:33:48.790Z,3.40
2023-02-14T18:35:50.509Z,3.40
2023-02-14T18:37:52.195Z,3.40
2023-02-14T18:39:53.822Z,3.40
2023-02-14T18:41:59.877Z,3.40
2023-02-14T18:44:02.228Z,3.40
2023-02-14T18:46:15.892Z,3.40
2023-02-14T18:48:17.513Z,3.40
2023-02-14T18:50:19.319Z,3.30
2023-02-14T18:52:21.015Z,3.20
2023-02-14T18:54:22.691Z,3.10
2023-02-14T18:56:28.641Z,3.10
2023-02-14T18:58:30.304Z,3.00
2023-02-14T19:00:33.293Z,3.00
2023-02-14T19:02:35.718Z,3.00
2023-02-14T19:04:37.394Z,3.00
2023-02-14T19:06:40.943Z,3.10
2023-02-14T19:08:43.397Z,3.10
2023-02-14T19:10:45.015Z,3.00
2023-02-14T19:12:46.643Z,3.00
2023-02-14T19:14:48.660Z,3.10
2023-02-14T19:16:53.342Z,3.10
2023-02-14T19:18:55.095Z,3.10
2023-02-14T19:20:56.732Z,3.10
2023-02-14T19:22:58.429Z,3.10
2023-02-14T19:25:03.447Z,3.00
2023-02-14T19:27:05.462Z,2.90
2023-02-14T19:29:10.737Z,2.90
2023-02-14T19:31:12.568Z,2.90
2023-02-14T19:33:14.213Z,2.90
2023-02-14T19:35:15.858Z,2.80
2023-02-14T19:37:17.564Z,2.80
2023-02-14T19:39:20.505Z,2.90
2023-02-14T19:41:27.711Z,2.80
2023-02-14T19:43:29.399Z,2.90
2023-02-14T19:45:32.602Z,2.90
2023-02-14T19:47:46.802Z,2.80
2023-02-14T19:49:49.746Z,2.80
2023-02-14T19:51:51.509Z,2.80
2023-02-14T19:53:53.927Z,2.70
2023-02-14T19:55:56.271Z,2.60
2023-02-14T19:57:58.127Z,2.60
2023-02-14T19:59:59.829Z,2.50
2023-02-14T20:02:01.619Z,2.50
2023-02-14T20:04:04.706Z,2.40
2023-02-14T20:06:06.440Z,2.30
2023-02-14T20:08:08.085Z,2.30
2023-02-14T20:10:11.810Z,2.20
2023-02-14T20:12:13.940Z,2.20
2023-02-14T20:14:20.502Z,2.20
2023-02-14T20:16:26.742Z,2.20
2023-02-14T20:18:28.399Z,2.10
2023-02-14T20:20:50.169Z,2.00
2023-02-14T20:22:51.802Z,1.90
2023-02-14T20:24:53.532Z,1.90
2023-02-14T20:26:55.401Z,1.80
2023-02-14T20:29:03.937Z,1.90
2023-02-14T20:31:13.581Z,1.80
2023-02-14T20:33:15.359Z,1.80
2023-02-14T20:35:17.109Z,1.80
2023-02-14T20:37:18.859Z,1.80
2023-02-14T20:39:23.547Z,1.90
2023-02-14T20:41:26.310Z,1.90
2023-02-14T20:43:27.954Z,1.80
2023-02-14T20:45:29.712Z,1.70
2023-02-14T20:47:31.388Z,1.70
2023-02-14T20:49:35.673Z,1.70
2023-02-14T20:58:23.016Z,1.70
2023-02-14T21:00:25.659Z,1.80
2023-02-14T21:02:27.378Z,1.80
2023-02-14T21:04:30.096Z,1.90
2023-02-14T21:06:33.897Z,1.90
2023-02-14T21:08:36.581Z,1.90
2023-02-14T21:10:38.195Z,1.80
2023-02-14T21:12:39.862Z,1.80
2023-02-14T21:14:41.477Z,1.80
2023-02-14T21:16:43.095Z,1.70
2023-02-14T21:18:48.638Z,1.60
2023-02-14T21:20:50.902Z,1.60
2023-02-14T21:22:56.958Z,1.60
2023-02-14T21:24:58.710Z,1.60
2023-02-14T21:27:01.691Z,1.60
2023-02-14T21:29:03.547Z,1.60
2023-02-14T21:31:08.110Z,1.60
2023-02-14T21:33:09.890Z,1.60
2023-02-14T21:35:11.604Z,1.60
2023-02-14T21:37:13.314Z,1.50
2023-02-14T21:39:15.047Z,1.50
2023-02-14T21:41:19.817Z,1.50
2023-02-14T21:43:21.465Z,1.50
2023-02-14T21:45:41.888Z,1.50
2023-02-14T21:48:03.494Z,1.50
2023-02-14T21:50:24.312Z,1.50
2023-02-14T21:52:26.032Z,1.50
2023-02-14T21:54:27.729Z,1.70
2023-02-14T21:56:29.374Z,1.80
2023-02-14T21:58:31.058Z,2.00
2023-02-14T22:00:32.657Z,2.10
2023-02-14T22:02:34.377Z,2.10
2023-02-14T22:04:36.517Z,2.10
2023-02-14T22:06:40.200Z,2.10
2023-02-14T22:08:42.777Z,2.00
2023-02-14T22:10:44.402Z,2.10
2023-02-14T22:12:46.069Z,2.20
2023-02-14T22:14:47.762Z,2.40
2023-02-14T22:16:49.383Z,2.40
2023-02-14T22:18:51.513Z,2.50
2023-02-14T22:20:55.072Z,2.50
2023-02-14T22:22:56.785Z,2.50
2023-02-14T22:24:58.442Z,2.40
2023-02-14T22:27:00.112Z,2.20
2023-02-14T22:29:03.020Z,2.20
2023-02-14T22:31:05.246Z,2.20
2023-02-14T22:33:07.073Z,2.10
2023-02-14T22:35:08.877Z,2.10
2023-02-14T22:37:10.536Z,1.90
2023-02-14T22:39:14.926Z,1.80
2023-02-14T22:41:19.260Z,1.70
2023-02-14T22:43:22.057Z,1.70
2023-02-14T22:45:23.691Z,1.60
2023-02-14T22:47:25.467Z,1.70
2023-02-14T22:49:27.234Z,1.80
2023-02-14T22:51:32.032Z,1.80
2023-02-14T22:53:33.679Z,1.80
2023-02-14T22:55:35.572Z,1.80
2023-02-14T22:57:37.194Z,1.80
2023-02-14T22:59:39.962Z,1.70
2023-02-14T23:01:41.727Z,1.60
2023-02-14T23:03:44.189Z,1.60
2023-02-14T23:05:45.852Z,1.60
2023-02-14T23:07:47.514Z,1.70
2023-02-14T23:09:49.748Z,1.60
2023-02-14T23:11:51.973Z,1.50
2023-02-14T23:14:12.675Z,1.40
2023-02-14T23:16:33.381Z,1.30
2023-02-14T23:18:53.840Z,1.20
2023-02-14T23:21:14.264Z,1.20
2023-02-14T23:23:15.883Z,1.10
2023-02-14T23:25:17.615Z,1.10
2023-02-14T23:27:22.133Z,1.10
2023-02-14T23:29:23.752Z,1.10
2023-02-14T23:31:25.465Z,1.10
2023-02-14T23:33:27.243Z,1.10
2023-02-14T23:35:29.035Z,1.10
2023-02-14T23:37:30.820Z,1.10
2023-02-14T23:39:35.642Z,1.10
2023-02-14T23:41:49.806Z,1.10
2023-02-14T23:43:51.481Z,1.20
2023-02-14T23:45:53.244Z,1.30
2023-02-14T23:47:54.989Z,1.40
2023-02-14T23:49:56.643Z,1.40
2023-02-14T23:51:58.661Z,1.50
2023-02-14T23:54:00.558Z,1.50
2023-02-14T23:56:03.461Z,1.60
2023-02-14T23:58:05.682Z,1.60
